Terminal Aerodrome Forecast
Issued by NWS Mt. Holly, NJ

Home | Current Version | Previous Version | Text Only | Print | Product List | Glossary On
Versions: 1 2 3 4 5 6 7 8 9 10 11 12 13 14 15 16 17 18 19 20 21 22 23 24 25
000
FTUS41 KPHI 172300
TAFPHL
TAF
KPHL 172320Z 1800/1906 21003KT P6SM FEW060
     FM181000 26005KT P6SM FEW050
     FM181500 29005KT P6SM SCT050
     FM190000 32004KT P6SM SKC=

USA.gov is the U.S. government's official web portal to all federal, state and local government web resources and services.